sensor_id;sensor_type;location;lat;lon;timestamp;pressure;altitude;pressure_sealevel;temperature
75273;BMP280;63869;52.344;16.928;2023-06-05T00:00:37;101385.94;;;12.01
75273;BMP280;63869;52.344;16.928;2023-06-05T00:03:02;101379.53;;;11.91
75273;BMP280;63869;52.344;16.928;2023-06-05T00:05:27;101384.13;;;11.91
75273;BMP280;63869;52.344;16.928;2023-06-05T00:07:54;101391.03;;;11.88
75273;BMP280;63869;52.344;16.928;2023-06-05T00:10:20;101394.47;;;11.85
75273;BMP280;63869;52.344;16.928;2023-06-05T00:12:46;101384.22;;;11.76
75273;BMP280;63869;52.344;16.928;2023-06-05T00:15:11;101395.72;;;11.70
75273;BMP280;63869;52.344;16.928;2023-06-05T00:17:37;101391.53;;;11.65
75273;BMP280;63869;52.344;16.928;2023-06-05T00:20:03;101388.53;;;11.60
75273;BMP280;63869;52.344;16.928;2023-06-05T00:22:29;101392.75;;;11.57
75273;BMP280;63869;52.344;16.928;2023-06-05T00:24:56;101385.91;;;11.53
75273;BMP280;63869;52.344;16.928;2023-06-05T00:27:21;101388.63;;;11.46
75273;BMP280;63869;52.344;16.928;2023-06-05T00:29:47;101392.06;;;11.43
75273;BMP280;63869;52.344;16.928;2023-06-05T00:32:12;101389.44;;;11.35
75273;BMP280;63869;52.344;16.928;2023-06-05T00:34:37;101389.84;;;11.30
75273;BMP280;63869;52.344;16.928;2023-06-05T00:37:03;101399.75;;;11.33
75273;BMP280;63869;52.344;16.928;2023-06-05T00:39:28;101399.75;;;11.33
75273;BMP280;63869;52.344;16.928;2023-06-05T00:41:54;101405.16;;;11.30
75273;BMP280;63869;52.344;16.928;2023-06-05T00:44:21;101404.81;;;11.24
75273;BMP280;63869;52.344;16.928;2023-06-05T00:46:48;101405.97;;;11.23
75273;BMP280;63869;52.344;16.928;2023-06-05T00:49:14;101407.13;;;11.22
75273;BMP280;63869;52.344;16.928;2023-06-05T00:51:41;101404.81;;;11.21
75273;BMP280;63869;52.344;16.928;2023-06-05T00:54:08;101402.88;;;11.18
75273;BMP280;63869;52.344;16.928;2023-06-05T00:56:33;101397.59;;;11.11
75273;BMP280;63869;52.344;16.928;2023-06-05T00:59:01;101401.03;;;11.11
75273;BMP280;63869;52.344;16.928;2023-06-05T01:01:26;101389.94;;;11.02
75273;BMP280;63869;52.344;16.928;2023-06-05T01:03:56;101397.63;;;11.07
75273;BMP280;63869;52.344;16.928;2023-06-05T01:06:26;101403.75;;;11.04
75273;BMP280;63869;52.344;16.928;2023-06-05T01:08:52;101399.88;;;11.01
75273;BMP280;63869;52.344;16.928;2023-06-05T01:14:14;101396.88;;;10.99
75273;BMP280;63869;52.344;16.928;2023-06-05T01:16:41;101403.00;;;10.96
75273;BMP280;63869;52.344;16.928;2023-06-05T01:19:13;101400.69;;;10.95
75273;BMP280;63869;52.344;16.928;2023-06-05T01:21:39;101390.78;;;10.92
75273;BMP280;63869;52.344;16.928;2023-06-05T01:24:04;101401.47;;;10.95
75273;BMP280;63869;52.344;16.928;2023-06-05T01:26:38;101403.00;;;10.96
75273;BMP280;63869;52.344;16.928;2023-06-05T01:29:10;101398.78;;;10.95
75273;BMP280;63869;52.344;16.928;2023-06-05T01:31:37;101402.97;;;11.00
75273;BMP280;63869;52.344;16.928;2023-06-05T01:34:06;101400.66;;;11.02
75273;BMP280;63869;52.344;16.928;2023-06-05T01:36:33;101404.88;;;11.03
75273;BMP280;63869;52.344;16.928;2023-06-05T01:38:59;101406.03;;;11.05
75273;BMP280;63869;52.344;16.928;2023-06-05T01:41:26;101401.41;;;11.02
75273;BMP280;63869;52.344;16.928;2023-06-05T01:43:52;101407.94;;;11.05
75273;BMP280;63869;52.344;16.928;2023-06-05T01:46:20;101400.66;;;11.02
75273;BMP280;63869;52.344;16.928;2023-06-05T01:48:46;101402.59;;;10.98
75273;BMP280;63869;52.344;16.928;2023-06-05T01:51:12;101403.38;;;10.95
75273;BMP280;63869;52.344;16.928;2023-06-05T01:53:37;101399.97;;;10.91
75273;BMP280;63869;52.344;16.928;2023-06-05T01:56:03;101398.41;;;10.86
75273;BMP280;63869;52.344;16.928;2023-06-05T01:58:29;101402.28;;;10.82
75273;BMP280;63869;52.344;16.928;2023-06-05T02:00:54;101402.31;;;10.75
75273;BMP280;63869;52.344;16.928;2023-06-05T02:03:22;101398.47;;;10.68
75273;BMP280;63869;52.344;16.928;2023-06-05T02:05:48;101404.22;;;10.63
75273;BMP280;63869;52.344;16.928;2023-06-05T02:08:13;101399.28;;;10.58
75273;BMP280;63869;52.344;16.928;2023-06-05T02:10:47;101400.78;;;10.56
75273;BMP280;63869;52.344;16.928;2023-06-05T02:13:13;101390.88;;;10.49
75273;BMP280;63869;52.344;16.928;2023-06-05T02:15:40;101386.31;;;10.43
75273;BMP280;63869;52.344;16.928;2023-06-05T02:18:06;101383.63;;;10.39
75273;BMP280;63869;52.344;16.928;2023-06-05T02:20:34;101381.31;;;10.38
75273;BMP280;63869;52.344;16.928;2023-06-05T02:23:01;101384.78;;;10.42
75273;BMP280;63869;52.344;16.928;2023-06-05T02:25:26;101384.38;;;10.36
75273;BMP280;63869;52.344;16.928;2023-06-05T02:27:52;101377.16;;;10.33
75273;BMP280;63869;52.344;16.928;2023-06-05T02:30:18;101374.84;;;10.28
75273;BMP280;63869;52.344;16.928;2023-06-05T02:32:43;101377.53;;;10.31
75273;BMP280;63869;52.344;16.928;2023-06-05T02:35:12;101384.03;;;10.34
75273;BMP280;63869;52.344;16.928;2023-06-05T02:37:39;101383.25;;;10.30
75273;BMP280;63869;52.344;16.928;2023-06-05T02:40:13;101392.41;;;10.29
75273;BMP280;63869;52.344;16.928;2023-06-05T02:42:39;101382.88;;;10.28
75273;BMP280;63869;52.344;16.928;2023-06-05T02:45:06;101381.72;;;10.29
75273;BMP280;63869;52.344;16.928;2023-06-05T02:47:32;101384.78;;;10.34
75273;BMP280;63869;52.344;16.928;2023-06-05T02:49:58;101383.22;;;10.37
75273;BMP280;63869;52.344;16.928;2023-06-05T02:52:25;101388.19;;;10.46
75273;BMP280;63869;52.344;16.928;2023-06-05T02:54:53;101383.22;;;10.51
75273;BMP280;63869;52.344;16.928;2023-06-05T02:57:18;101385.16;;;10.58
75273;BMP280;63869;52.344;16.928;2023-06-05T02:59:44;101393.91;;;10.65
75273;BMP280;63869;52.344;16.928;2023-06-05T03:02:10;101383.19;;;10.69
75273;BMP280;63869;52.344;16.928;2023-06-05T03:04:35;101382.06;;;10.74
75273;BMP280;63869;52.344;16.928;2023-06-05T03:07:01;101380.88;;;10.78
75273;BMP280;63869;52.344;16.928;2023-06-05T03:09:31;101383.16;;;10.83
75273;BMP280;63869;52.344;16.928;2023-06-05T03:11:57;101379.34;;;10.84
75273;BMP280;63869;52.344;16.928;2023-06-05T03:14:23;101378.56;;;10.91
75273;BMP280;63869;52.344;16.928;2023-06-05T03:16:48;101380.44;;;10.94
75273;BMP280;63869;52.344;16.928;2023-06-05T03:19:14;101375.84;;;10.98
75273;BMP280;63869;52.344;16.928;2023-06-05T03:21:39;101387.69;;;11.04
75273;BMP280;63869;52.344;16.928;2023-06-05T03:24:10;101380.41;;;11.08
75273;BMP280;63869;52.344;16.928;2023-06-05T03:26:38;101382.25;;;11.18
75273;BMP280;63869;52.344;16.928;2023-06-05T03:29:04;101389.47;;;11.28
75273;BMP280;63869;52.344;16.928;2023-06-05T03:31:29;101390.59;;;11.38
75273;BMP280;63869;52.344;16.928;2023-06-05T03:33:55;101387.47;;;11.47
75273;BMP280;63869;52.344;16.928;2023-06-05T03:36:20;101368.31;;;11.48
75273;BMP280;63869;52.344;16.928;2023-06-05T03:38:46;101387.72;;;11.63
75273;BMP280;63869;52.344;16.928;2023-06-05T03:41:11;101378.13;;;11.72
75273;BMP280;63869;52.344;16.928;2023-06-05T03:43:37;101383.41;;;11.80
75273;BMP280;63869;52.344;16.928;2023-06-05T03:46:02;101382.59;;;11.90
75273;BMP280;63869;52.344;16.928;2023-06-05T03:48:28;101387.50;;;11.95
75273;BMP280;63869;52.344;16.928;2023-06-05T03:50:53;101378.66;;;12.01
75273;BMP280;63869;52.344;16.928;2023-06-05T03:53:21;101385.09;;;12.07
75273;BMP280;63869;52.344;16.928;2023-06-05T03:55:48;101377.00;;;12.18
75273;BMP280;63869;52.344;16.928;2023-06-05T03:58:15;101380.34;;;12.26
75273;BMP280;63869;52.344;16.928;2023-06-05T04:03:07;101375.56;;;12.44
75273;BMP280;63869;52.344;16.928;2023-06-05T04:05:34;101375.88;;;12.53
75273;BMP280;63869;52.344;16.928;2023-06-05T04:08:00;101374.25;;;12.59
75273;BMP280;63869;52.344;16.928;2023-06-05T04:10:25;101380.63;;;12.72
75273;BMP280;63869;52.344;16.928;2023-06-05T04:12:51;101377.06;;;12.82
75273;BMP280;63869;52.344;16.928;2023-06-05T04:15:16;101377.72;;;12.94
75273;BMP280;63869;52.344;16.928;2023-06-05T04:17:41;101381.00;;;13.05
75273;BMP280;63869;52.344;16.928;2023-06-05T04:20:07;101379.34;;;13.14
75273;BMP280;63869;52.344;16.928;2023-06-05T04:22:40;101388.44;;;13.24
75273;BMP280;63869;52.344;16.928;2023-06-05T04:25:06;101384.84;;;13.34
75273;BMP280;63869;52.344;16.928;2023-06-05T04:27:31;101387.78;;;13.43
75273;BMP280;63869;52.344;16.928;2023-06-05T04:29:57;101384.53;;;13.55
75273;BMP280;63869;52.344;16.928;2023-06-05T04:32:22;101391.22;;;13.67
75273;BMP280;63869;52.344;16.928;2023-06-05T04:34:47;101386.88;;;13.77
75273;BMP280;63869;52.344;16.928;2023-06-05T04:37:13;101391.19;;;13.94
75273;BMP280;63869;52.344;16.928;2023-06-05T04:39:38;101395.97;;;14.06
75273;BMP280;63869;52.344;16.928;2023-06-05T04:42:04;101398.09;;;14.18
75273;BMP280;63869;52.344;16.928;2023-06-05T04:44:29;101401.31;;;14.29
75273;BMP280;63869;52.344;16.928;2023-06-05T04:46:55;101399.22;;;14.41
75273;BMP280;63869;52.344;16.928;2023-06-05T04:49:21;101397.75;;;14.56
75273;BMP280;63869;52.344;16.928;2023-06-05T04:51:48;101396.38;;;14.67
75273;BMP280;63869;52.344;16.928;2023-06-05T04:54:13;101395.34;;;14.81
75273;BMP280;63869;52.344;16.928;2023-06-05T04:56:38;101392.00;;;14.93
75273;BMP280;63869;52.344;16.928;2023-06-05T04:59:04;101400.09;;;15.10
75273;BMP280;63869;52.344;16.928;2023-06-05T05:01:30;101397.09;;;15.24
75273;BMP280;63869;52.344;16.928;2023-06-05T05:03:55;101396.03;;;15.37
75273;BMP280;63869;52.344;16.928;2023-06-05T05:06:21;101390.72;;;15.50
75273;BMP280;63869;52.344;16.928;2023-06-05T05:08:47;101388.09;;;15.63
75273;BMP280;63869;52.344;16.928;2023-06-05T05:11:17;101389.34;;;15.74
75273;BMP280;63869;52.344;16.928;2023-06-05T05:13:43;101395.13;;;15.89
75273;BMP280;63869;52.344;16.928;2023-06-05T05:16:09;101397.13;;;16.01
75273;BMP280;63869;52.344;16.928;2023-06-05T05:18:37;101401.84;;;16.13
75273;BMP280;63869;52.344;16.928;2023-06-05T05:21:04;101400.38;;;16.25
75273;BMP280;63869;52.344;16.928;2023-06-05T05:23:31;101405.38;;;16.39
75273;BMP280;63869;52.344;16.928;2023-06-05T05:25:56;101402.72;;;16.52
75273;BMP280;63869;52.344;16.928;2023-06-05T05:28:22;101396.69;;;16.60
75273;BMP280;63869;52.344;16.928;2023-06-05T05:30:47;101410.09;;;16.77
75273;BMP280;63869;52.344;16.928;2023-06-05T05:33:12;101405.47;;;16.90
75273;BMP280;63869;52.344;16.928;2023-06-05T05:35:40;101413.16;;;17.04
75273;BMP280;63869;52.344;16.928;2023-06-05T05:38:05;101414.00;;;17.14
75273;BMP280;63869;52.344;16.928;2023-06-05T05:40:31;101414.31;;;17.28
75273;BMP280;63869;52.344;16.928;2023-06-05T05:42:56;101414.28;;;17.41
75273;BMP280;63869;52.344;16.928;2023-06-05T05:45:22;101413.53;;;17.53
75273;BMP280;63869;52.344;16.928;2023-06-05T05:47:47;101420.41;;;17.67
75273;BMP280;63869;52.344;16.928;2023-06-05T05:50:12;101418.09;;;17.78
75273;BMP280;63869;52.344;16.928;2023-06-05T05:52:38;101417.91;;;17.94
75273;BMP280;63869;52.344;16.928;2023-06-05T05:55:04;101418.00;;;18.03
75273;BMP280;63869;52.344;16.928;2023-06-05T05:57:30;101415.69;;;18.14
75273;BMP280;63869;52.344;16.928;2023-06-05T05:59:55;101425.69;;;18.27
75273;BMP280;63869;52.344;16.928;2023-06-05T06:02:21;101413.09;;;18.33
75273;BMP280;63869;52.344;16.928;2023-06-05T06:04:46;101422.84;;;18.52
75273;BMP280;63869;52.344;16.928;2023-06-05T06:07:12;101422.88;;;18.61
75273;BMP280;63869;52.344;16.928;2023-06-05T06:09:38;101422.22;;;18.79
75273;BMP280;63869;52.344;16.928;2023-06-05T06:12:04;101435.53;;;18.95
75273;BMP280;63869;52.344;16.928;2023-06-05T06:14:34;101424.75;;;19.13
75273;BMP280;63869;52.344;16.928;2023-06-05T06:17:00;101430.81;;;19.26
75273;BMP280;63869;52.344;16.928;2023-06-05T06:19:26;101437.00;;;19.36
75273;BMP280;63869;52.344;16.928;2023-06-05T06:21:56;101441.72;;;19.54
75273;BMP280;63869;52.344;16.928;2023-06-05T06:24:21;101436.13;;;19.66
75273;BMP280;63869;52.344;16.928;2023-06-05T06:26:48;101439.91;;;19.78
75273;BMP280;63869;52.344;16.928;2023-06-05T06:29:20;101427.34;;;19.80
75273;BMP280;63869;52.344;16.928;2023-06-05T06:31:49;101442.78;;;20.02
75273;BMP280;63869;52.344;16.928;2023-06-05T06:34:15;101444.41;;;20.17
75273;BMP280;63869;52.344;16.928;2023-06-05T06:36:41;101440.31;;;20.22
75273;BMP280;63869;52.344;16.928;2023-06-05T06:39:09;101450.84;;;20.29
75273;BMP280;63869;52.344;16.928;2023-06-05T06:41:36;101452.22;;;20.34
75273;BMP280;63869;52.344;16.928;2023-06-05T06:44:02;101444.19;;;20.39
75273;BMP280;63869;52.344;16.928;2023-06-05T06:46:28;101447.78;;;20.45
75273;BMP280;63869;52.344;16.928;2023-06-05T06:48:53;101453.97;;;20.55
75273;BMP280;63869;52.344;16.928;2023-06-05T06:51:18;101448.66;;;20.60
75273;BMP280;63869;52.344;16.928;2023-06-05T06:53:44;101443.06;;;20.64
75273;BMP280;63869;52.344;16.928;2023-06-05T06:56:09;101448.91;;;20.72
75273;BMP280;63869;52.344;16.928;2023-06-05T06:58:35;101443.59;;;20.77
75273;BMP280;63869;52.344;16.928;2023-06-05T07:01:02;101447.31;;;20.89
75273;BMP280;63869;52.344;16.928;2023-06-05T07:03:28;101441.19;;;21.03
75273;BMP280;63869;52.344;16.928;2023-06-05T07:05:54;101436.94;;;21.11
75273;BMP280;63869;52.344;16.928;2023-06-05T07:08:20;101447.28;;;21.22
75273;BMP280;63869;52.344;16.928;2023-06-05T07:10:45;101450.88;;;21.28
75273;BMP280;63869;52.344;16.928;2023-06-05T07:13:11;101451.00;;;21.33
75273;BMP280;63869;52.344;16.928;2023-06-05T07:15:37;101452.59;;;21.40
75273;BMP280;63869;52.344;16.928;2023-06-05T07:18:02;101452.53;;;21.49
75273;BMP280;63869;52.344;16.928;2023-06-05T07:20:27;101458.09;;;21.55
75273;BMP280;63869;52.344;16.928;2023-06-05T07:22:53;101449.84;;;21.64
75273;BMP280;63869;52.344;16.928;2023-06-05T07:25:18;101448.19;;;21.66
75273;BMP280;63869;52.344;16.928;2023-06-05T07:27:46;101455.06;;;21.76
75273;BMP280;63869;52.344;16.928;2023-06-05T07:30:11;101456.38;;;21.81
75273;BMP280;63869;52.344;16.928;2023-06-05T07:32:38;101454.03;;;21.88
75273;BMP280;63869;52.344;16.928;2023-06-05T07:35:03;101461.94;;;22.01
75273;BMP280;63869;52.344;16.928;2023-06-05T07:37:28;101443.13;;;22.03
75273;BMP280;63869;52.344;16.928;2023-06-05T07:39:54;101456.00;;;22.17
75273;BMP280;63869;52.344;16.928;2023-06-05T07:42:19;101449.91;;;22.22
75273;BMP280;63869;52.344;16.928;2023-06-05T07:44:44;101447.66;;;22.36
75273;BMP280;63869;52.344;16.928;2023-06-05T07:47:10;101449.72;;;22.41
75273;BMP280;63869;52.344;16.928;2023-06-05T07:49:36;101446.28;;;22.46
75273;BMP280;63869;52.344;16.928;2023-06-05T07:52:01;101447.22;;;22.57
75273;BMP280;63869;52.344;16.928;2023-06-05T07:54:26;101449.75;;;22.61
75273;BMP280;63869;52.344;16.928;2023-06-05T07:56:52;101444.19;;;22.70
75273;BMP280;63869;52.344;16.928;2023-06-05T07:59:17;101444.53;;;22.78
75273;BMP280;63869;52.344;16.928;2023-06-05T08:01:47;101443.19;;;22.88
75273;BMP280;63869;52.344;16.928;2023-06-05T08:04:14;101439.31;;;22.94
75273;BMP280;63869;52.344;16.928;2023-06-05T08:06:40;101448.56;;;23.02
75273;BMP280;63869;52.344;16.928;2023-06-05T08:09:07;101440.72;;;23.10
75273;BMP280;63869;52.344;16.928;2023-06-05T08:11:37;101438.88;;;23.22
75273;BMP280;63869;52.344;16.928;2023-06-05T08:14:04;101436.28;;;23.33
75273;BMP280;63869;52.344;16.928;2023-06-05T08:16:30;101441.31;;;23.40
75273;BMP280;63869;52.344;16.928;2023-06-05T08:18:56;101438.38;;;23.43
75273;BMP280;63869;52.344;16.928;2023-06-05T08:21:22;101443.16;;;23.48
75273;BMP280;63869;52.344;16.928;2023-06-05T08:23:47;101444.69;;;23.49
75273;BMP280;63869;52.344;16.928;2023-06-05T08:26:12;101440.75;;;23.56
75273;BMP280;63869;52.344;16.928;2023-06-05T08:28:39;101442.25;;;23.57
75273;BMP280;63869;52.344;16.928;2023-06-05T08:31:08;101448.53;;;23.63
75273;BMP280;63869;52.344;16.928;2023-06-05T08:33:34;101446.59;;;23.69
75273;BMP280;63869;52.344;16.928;2023-06-05T08:35:59;101447.88;;;23.74
75273;BMP280;63869;52.344;16.928;2023-06-05T08:38:24;101441.25;;;23.80
75273;BMP280;63869;52.344;16.928;2023-06-05T08:40:56;101450.97;;;23.87
75273;BMP280;63869;52.344;16.928;2023-06-05T08:43:24;101446.13;;;23.96
75273;BMP280;63869;52.344;16.928;2023-06-05T08:45:51;101445.59;;;23.98
75273;BMP280;63869;52.344;16.928;2023-06-05T08:48:20;101440.19;;;24.03
75273;BMP280;63869;52.344;16.928;2023-06-05T08:50:47;101438.78;;;24.14
75273;BMP280;63869;52.344;16.928;2023-06-05T08:53:17;101439.31;;;24.18
75273;BMP280;63869;52.344;16.928;2023-06-05T08:55:49;101438.56;;;24.23
75273;BMP280;63869;52.344;16.928;2023-06-05T08:58:16;101437.81;;;24.22
75273;BMP280;63869;52.344;16.928;2023-06-05T09:00:41;101435.16;;;24.28
75273;BMP280;63869;52.344;16.928;2023-06-05T09:03:10;101432.94;;;24.32
75273;BMP280;63869;52.344;16.928;2023-06-05T09:05:38;101434.22;;;24.36
75273;BMP280;63869;52.344;16.928;2023-06-05T09:08:03;101430.78;;;24.41
75273;BMP280;63869;52.344;16.928;2023-06-05T09:10:29;101433.53;;;24.47
75273;BMP280;63869;52.344;16.928;2023-06-05T09:12:57;101433.34;;;24.56
75273;BMP280;63869;52.344;16.928;2023-06-05T09:15:27;101438.84;;;24.62
75273;BMP280;63869;52.344;16.928;2023-06-05T09:18:10;101434.88;;;24.68
75273;BMP280;63869;52.344;16.928;2023-06-05T09:20:38;101435.69;;;24.74
75273;BMP280;63869;52.344;16.928;2023-06-05T09:23:21;101429.94;;;24.72
75273;BMP280;63869;52.344;16.928;2023-06-05T09:25:49;101426.22;;;24.75
75273;BMP280;63869;52.344;16.928;2023-06-05T09:28:16;101433.47;;;24.84
75273;BMP280;63869;52.344;16.928;2023-06-05T09:33:27;101419.09;;;24.94
75273;BMP280;63869;52.344;16.928;2023-06-05T09:36:12;101419.59;;;24.99
75273;BMP280;63869;52.344;16.928;2023-06-05T09:38:39;101423.81;;;25.00
75273;BMP280;63869;52.344;16.928;2023-06-05T09:41:12;101420.38;;;25.05
75273;BMP280;63869;52.344;16.928;2023-06-05T09:43:39;101415.66;;;25.05
75273;BMP280;63869;52.344;16.928;2023-06-05T09:48:33;101411.41;;;25.10
75273;BMP280;63869;52.344;16.928;2023-06-05T09:51:08;101411.91;;;25.14
75273;BMP280;63869;52.344;16.928;2023-06-05T09:53:58;101410.91;;;25.17
75273;BMP280;63869;52.344;16.928;2023-06-05T09:56:23;101410.16;;;25.16
75273;BMP280;63869;52.344;16.928;2023-06-05T09:58:50;101412.19;;;25.21
75273;BMP280;63869;52.344;16.928;2023-06-05T10:01:18;101410.94;;;25.28
75273;BMP280;63869;52.344;16.928;2023-06-05T10:03:56;101413.94;;;25.30
75273;BMP280;63869;52.344;16.928;2023-06-05T10:06:23;101404.25;;;25.34
75273;BMP280;63869;52.344;16.928;2023-06-05T10:08:52;101392.81;;;25.36
75273;BMP280;63869;52.344;16.928;2023-06-05T10:11:19;101394.53;;;25.45
75273;BMP280;63869;52.344;16.928;2023-06-05T10:13:47;101390.78;;;25.48
75273;BMP280;63869;52.344;16.928;2023-06-05T10:16:12;101390.84;;;25.53
75273;BMP280;63869;52.344;16.928;2023-06-05T10:18:38;101385.59;;;25.55
75273;BMP280;63869;52.344;16.928;2023-06-05T10:21:04;101384.59;;;25.53
75273;BMP280;63869;52.344;16.928;2023-06-05T10:23:30;101389.09;;;25.50
75273;BMP280;63869;52.344;16.928;2023-06-05T10:25:56;101389.31;;;25.58
75273;BMP280;63869;52.344;16.928;2023-06-05T10:28:34;101386.56;;;25.58
75273;BMP280;63869;52.344;16.928;2023-06-05T10:31:26;101380.34;;;25.57
75273;BMP280;63869;52.344;16.928;2023-06-05T10:34:04;101380.09;;;25.61
75273;BMP280;63869;52.344;16.928;2023-06-05T10:37:34;101384.34;;;25.67
75273;BMP280;63869;52.344;16.928;2023-06-05T10:39:39;101373.63;;;25.69
75273;BMP280;63869;52.344;16.928;2023-06-05T10:42:05;101368.66;;;25.73
75273;BMP280;63869;52.344;16.928;2023-06-05T10:44:43;101358.16;;;25.77
75273;BMP280;63869;52.344;16.928;2023-06-05T10:47:49;101365.88;;;25.84
75273;BMP280;63869;52.344;16.928;2023-06-05T10:52:49;101369.59;;;25.87
75273;BMP280;63869;52.344;16.928;2023-06-05T10:55:15;101350.41;;;25.93
75273;BMP280;63869;52.344;16.928;2023-06-05T11:00:35;101348.91;;;25.97
75273;BMP280;63869;52.344;16.928;2023-06-05T11:03:01;101350.16;;;26.02
75273;BMP280;63869;52.344;16.928;2023-06-05T11:05:27;101349.63;;;26.09
75273;BMP280;63869;52.344;16.928;2023-06-05T11:10:35;101356.38;;;26.13
75273;BMP280;63869;52.344;16.928;2023-06-05T11:13:00;101351.84;;;26.21
75273;BMP280;63869;52.344;16.928;2023-06-05T11:15:38;101351.84;;;26.21
75273;BMP280;63869;52.344;16.928;2023-06-05T11:18:26;101351.56;;;26.25
75273;BMP280;63869;52.344;16.928;2023-06-05T11:20:52;101339.09;;;26.24
75273;BMP280;63869;52.344;16.928;2023-06-05T11:23:17;101340.34;;;26.28
75273;BMP280;63869;52.344;16.928;2023-06-05T11:25:43;101338.06;;;26.27
75273;BMP280;63869;52.344;16.928;2023-06-05T11:28:08;101331.63;;;26.24
75273;BMP280;63869;52.344;16.928;2023-06-05T11:30:42;101339.84;;;26.30
75273;BMP280;63869;52.344;16.928;2023-06-05T11:33:16;101333.63;;;26.24
75273;BMP280;63869;52.344;16.928;2023-06-05T11:35:43;101336.56;;;26.37
75273;BMP280;63869;52.344;16.928;2023-06-05T11:38:13;101332.56;;;26.44
75273;BMP280;63869;52.344;16.928;2023-06-05T11:40:40;101332.50;;;26.55
75273;BMP280;63869;52.344;16.928;2023-06-05T11:43:07;101328.97;;;26.65
75273;BMP280;63869;52.344;16.928;2023-06-05T11:45:33;101319.41;;;26.77
75273;BMP280;63869;52.344;16.928;2023-06-05T11:48:11;101325.06;;;26.85
75273;BMP280;63869;52.344;16.928;2023-06-05T11:50:39;101322.31;;;26.91
75273;BMP280;63869;52.344;16.928;2023-06-05T11:53:09;101323.22;;;26.99
75273;BMP280;63869;52.344;16.928;2023-06-05T11:55:34;101326.81;;;27.18
75273;BMP280;63869;52.344;16.928;2023-06-05T11:58:26;101327.69;;;27.37
75273;BMP280;63869;52.344;16.928;2023-06-05T12:01:36;101317.72;;;27.58
75273;BMP280;63869;52.344;16.928;2023-06-05T12:04:07;101320.91;;;27.87
75273;BMP280;63869;52.344;16.928;2023-06-05T12:06:39;101314.41;;;28.08
75273;BMP280;63869;52.344;16.928;2023-06-05T12:09:10;101313.66;;;28.27
75273;BMP280;63869;52.344;16.928;2023-06-05T12:11:37;101316.03;;;28.54
75273;BMP280;63869;52.344;16.928;2023-06-05T12:14:03;101305.41;;;28.77
75273;BMP280;63869;52.344;16.928;2023-06-05T12:16:39;101302.53;;;29.01
75273;BMP280;63869;52.344;16.928;2023-06-05T12:19:16;101304.78;;;29.16
75273;BMP280;63869;52.344;16.928;2023-06-05T12:21:46;101303.63;;;29.38
75273;BMP280;63869;52.344;16.928;2023-06-05T12:24:12;101305.13;;;29.52
75273;BMP280;63869;52.344;16.928;2023-06-05T12:26:57;101300.97;;;29.71
75273;BMP280;63869;52.344;16.928;2023-06-05T12:29:28;101298.19;;;29.85
75273;BMP280;63869;52.344;16.928;2023-06-05T12:31:55;101298.81;;;30.04
75273;BMP280;63869;52.344;16.928;2023-06-05T12:34:47;101291.84;;;30.23
75273;BMP280;63869;52.344;16.928;2023-06-05T12:37:26;101282.69;;;30.49
75273;BMP280;63869;52.344;16.928;2023-06-05T12:39:59;101282.72;;;30.70
75273;BMP280;63869;52.344;16.928;2023-06-05T12:42:25;101279.97;;;30.78
75273;BMP280;63869;52.344;16.928;2023-06-05T12:44:51;101268.75;;;31.04
75273;BMP280;63869;52.344;16.928;2023-06-05T12:47:16;101276.22;;;31.24
75273;BMP280;63869;52.344;16.928;2023-06-05T12:49:41;101276.00;;;31.50
75273;BMP280;63869;52.344;16.928;2023-06-05T12:52:07;101271.81;;;31.64
75273;BMP280;63869;52.344;16.928;2023-06-05T12:54:36;101270.22;;;31.84
75273;BMP280;63869;52.344;16.928;2023-06-05T12:57:02;101271.56;;;32.06
75273;BMP280;63869;52.344;16.928;2023-06-05T12:59:28;101268.63;;;32.19
75273;BMP280;63869;52.344;16.928;2023-06-05T13:01:53;101266.63;;;32.42
75273;BMP280;63869;52.344;16.928;2023-06-05T13:04:18;101258.09;;;32.63
75273;BMP280;63869;52.344;16.928;2023-06-05T13:06:44;101256.03;;;32.94
75273;BMP280;63869;52.344;16.928;2023-06-05T13:09:09;101247.25;;;33.12
75273;BMP280;63869;52.344;16.928;2023-06-05T13:11:35;101256.09;;;33.26
75273;BMP280;63869;52.344;16.928;2023-06-05T13:14:00;101249.72;;;33.40
75273;BMP280;63869;52.344;16.928;2023-06-05T13:16:26;101250.25;;;33.47
75273;BMP280;63869;52.344;16.928;2023-06-05T13:18:51;101247.94;;;33.68
75273;BMP280;63869;52.344;16.928;2023-06-05T13:21:17;101250.19;;;33.86
75273;BMP280;63869;52.344;16.928;2023-06-05T13:23:42;101249.69;;;34.05
75273;BMP280;63869;52.344;16.928;2023-06-05T13:26:08;101242.16;;;34.23
75273;BMP280;63869;52.344;16.928;2023-06-05T13:28:33;101235.72;;;34.37
75273;BMP280;63869;52.344;16.928;2023-06-05T13:30:58;101245.94;;;34.69
75273;BMP280;63869;52.344;16.928;2023-06-05T13:33:24;101240.91;;;34.92
75273;BMP280;63869;52.344;16.928;2023-06-05T13:35:52;101231.84;;;35.01
75273;BMP280;63869;52.344;16.928;2023-06-05T13:38:19;101235.03;;;35.15
75273;BMP280;63869;52.344;16.928;2023-06-05T13:40:45;101233.94;;;35.28
75273;BMP280;63869;52.344;16.928;2023-06-05T13:43:14;101227.00;;;35.46
75273;BMP280;63869;52.344;16.928;2023-06-05T13:45:39;101223.91;;;35.78
75273;BMP280;63869;52.344;16.928;2023-06-05T13:48:05;101221.63;;;36.03
75273;BMP280;63869;52.344;16.928;2023-06-05T13:50:30;101228.41;;;36.19
75273;BMP280;63869;52.344;16.928;2023-06-05T13:52:55;101232.38;;;36.36
75273;BMP280;63869;52.344;16.928;2023-06-05T13:55:21;101229.56;;;36.74
75273;BMP280;63869;52.344;16.928;2023-06-05T13:57:46;101220.38;;;37.21
75273;BMP280;63869;52.344;16.928;2023-06-05T14:00:12;101221.41;;;37.57
75273;BMP280;63869;52.344;16.928;2023-06-05T14:02:39;101216.06;;;37.61
75273;BMP280;63869;52.344;16.928;2023-06-05T14:05:05;101215.19;;;37.89